Otter Creek, Iowa
Current Conditions -  °F | °C
As of 9:53 AM on Wednesday 22 Oct 2014 (Local Time) from KDBQ Reporting Station
Clear Clear  
Wind Chill: 41°   Ceiling: Unl
Heat Index: 45°   Visibility: 10mi
Dew Point: 40°   Wind: 8mph
Humidity: 82%   Direction: 160°SSE
Pressure: 30.33"   Gusts: NA
Location:  42.2725°N, 90.7654°W
Report Text: KDBQ 221453Z 16007KT 10SM CLR 07/04 A3033 RMK AO2 SLP278 T00720044 51005
Loading
Personal Weather Stations






























Interactive Weather Map
Tropical Storm Tracking
New forecast layout! Learn more

10-Day Weather Forecast

Advertisements
Track Severe Weather on mobile